Sábado, 20 de Septiembre del 2014

portal contactenos mapa del sitio buscar Revisar Correo Corporativo

Reporte METAR Consolidado

|| Reporte TAF Consolidado ||

Informe METAR emitido cada hora.

METAR

ESTACIÓN

AEROPUERTO

HORA UTC

DESCRIPCIÓN

SLGM

Guayaramerín

10-49S|65-20W

18:00

SLGM 201800Z 36012KT 7000 BKN017 FEW023CB BKN200 35/24 Q1011 A2987 HR55 FU CB NE=

SLRI

Riberalta

11-00S|66-04W

18:00

SLRI 201800Z 34008KT 8000 BKN017 FEW020CB BKN200 34/23 Q1011 A2986 HR51 FU CB NW=

SLCO

Cobija

11-02S|68-47W

18:00

SLCO 201800Z 36008KT 9999 BKN025 34/23 Q1010 A2984 983.1 HR54 FU CI=

SLJO

San Joaquin

13-03S|64-39W

18:00

SLJO 201800Z 32010KT 8000 SCT017 FEW023CB 35/22 Q1010 A2984 HR48 FU CB W RWY NML=

SLRA

San Ramón

13-15S|64-36W

18:00

SLRA 201800Z 32010KT 8000 SCT017 BKN200 35/21 Q1010 A2984 HR45 FU RWY NML=

SLMG

San Magdalena

13-15S|64-03W

18:00

SLMG 201800Z 32010KT 8000 SCT020 36/22 Q1010 A2984 HR46 FU RWY NML=

SLBU

Baures

13-39S|63-42W

18:00

SLBU 201800Z NIL=

SLSA

Santa Ana de Yacuma

13-45S|65-26W

18:00

SLSA 201800Z 32008KT 8000 VCSH BKN023 FEW025CB BKN200 34/22 Q1009 A2982 HR49 FU CB/SH NE/SE=

SLSR

Santa Rosa

14-04S|66-47W

18:00

SLSR 201800Z 33010KT 9999 SCT020 FEW023CB BKN200 35/24 Q1006 A2973 HR54 CB E/SE RWY NML=

SLRY

Reyes

14-18S|67-21W

18:00

SLRY 201800Z 32006KT 9999 FEW020 FEW025CB BKN200 32/23 Q1011 A2987 CB/S/SW HR57 RWY OPR 1 000M=

SLRQ

Rurrenabaque

14-25S|67-29W

18:00

SLRQ 201800Z 00000KT 6000 TS VCSH BKN017 FEW020CB BKN200 29/27 Q1010 A2984 HR87 TS ON STN CB/SH E/SE

SLAP

Apolo

14-44S|68-24W

17:00

SLAPO 121700Z NIL=

SLTR

Trinidad

14-49S|64-54W

18:00

SLTR 201800Z 27004KT 7000 FEW020 FEW023CB SCT200 35/23 Q1010 A2984 992.0 HR51 FU CB E/SE/S NOSIG=

SLSB

San Borja

14-51S|66-44W

18:00

SLSB 201800Z 32012KT 8000 SCT020 35/23 Q1009 A2980 FU HR50 RWY NML=

SLSM

San Ignacio de Moxos

14-57S|65-38W

18:00

SLSM 201800Z 27004KT 9999 SCT020 34/24 Q1008 A978 HR55 RWY NML=

SLAS

Ascención de Guarayos

15-55S|63-09W

18:00

SLAS 201800Z 18018KT 9999 SCT017 BKN070 OVC200 24/19 Q1015 A2998 HR71 RWY HUM OPR=

SLCP

Concepción

16-08S|62-01W

18:00

SLCP 201800Z 18012KT 9999 BKN015 BKN070 22/21 Q1017 A3003 HR92 RERA FU RWY NML=

SLLP

Internaciónal El Alto

16-08S|68-10W

18:00

SLLP 201800Z 07012KT 9999 SCT016 FEW017CB BKN200 11/01 Q1036 A3061 627.3 P4754 CB/SH N/NE/NW AC HR50 NOSIG=

SLJV

San Javier

16-16S|62-28W

18:00

SLJV 201800Z 18018KT 9999 BKN012 FEW027CB OVC070 20/19 Q1015 A2997 HR99 RETS CB S/SW/W RWY HUM OPR=

SLTI

San Matías

16-20S|58-24W

18:00

SLTI 201800Z 18008KT 8000 BKN017 OVC200 34/23 Q1015 A2997 HR53 FU RWY NML=

SLSI

San Ignacio de Velasco

16-23S|60-57W

18:00

SLSI 201800Z 21018KT 9999 BKN017 OVC070 25/22 Q1015 A2997 HR83 RWY NML=

SLCB

Cochabamba

17-25S|66-10W

18:00

SLCB 201800Z 25004KT 9999 FEW027 FEW030CB 26/M01 Q1023 A3021 749.8 HR18 CB DIST NE AC CI NOSIG=

SLCN

Charaña

17-35S|69-25W

-

Mensaje no Recibido

SLVR

Internaciónal Viru Viru

17-38S|63-08W

18:00

SLVR 201800Z 17012KT 8000 -RA SCT006 BKN020 FEW030CB OVC070 21/ 20 Q1017 A3005 HR98 CB NW/NE/E NOSIG=

SLET

El Trompillo

17-48S|63-10W

18:00

SLET 201800Z 14011KT 8000 -RA FEW008 BKN023 FEW030CB OVC070 21/ 20 Q1016 A30.02 HR94 CB/DIST/W/NW NOSIG=

SLJE

San José de Chiquitos

17-49S|60-44W

18:00

SLJE 201800Z 18006KT 9999 BKN010 OVC070 22/20 Q1018 A3006 HR90 RERA RWY WET OPR=

SLOR

Oruro

17-57S|67-04W

18:00

SLOR 201800Z 18003KT 9999 FEW015 16/M05 Q1035 A3057 656.0 AC/CI HR24=

SLRB

Roboré

18-19S|59-45W

18:00

SLRB 201800Z 00000KT 9999 OVC005 22/21 Q1019 A3009 HR96 RWY WET OPR=

SLVG

Valle Grande

18-28S|64-05W

18:00

SLVG 201800Z 15015KT 7000 VCSH OVC020 15/11 Q1027 A3033 HR71 SH S/E RWY NML=

SLPS

Puerto Suárez

18-58S|57-49W

18:00

SLPS 201800Z 24006KT 9999 BKN015 OVC070 25/24 Q1014 A2995 HR92=

SLSU

Sucre

19-00S|65-17W

18:00

SLSU 201800Z 04008KT 9999 FEW020 19/06 Q1028 A3037 HR43=

SLPO

Potosí

19-32S|65-43W

17:00

SLPO 201700Z 33004KT 9999 NSC 14/M04 Q1038 A3065 HR30=

SLAG

Monteagudo

19-49S|63-58W

17:00

SLAG 201700Z 18005KT 9999 BKN070 25/17 Q1024 A3024 HR59 FU RWY CLSD=

SLCA

Camiri

20-00S|63-31W

18:00

SLCA 201800Z 18010KT 9999 BKN036 28/14 Q1020 A3012 HR43 RWY NML=

SLUY

Uyuni

20-27S|62-52W

14:00

SLUY 201400Z 30005KT 9999 NSC 03/M11 Q1038 A3067 661.4 HR35=

SLVM

Villamontes

21-15S|63-24W

18:00

SLVM 201800Z 15012KT 9999 BKN025 27/15 Q1018 A3006 HR46 AC=

SLTJ

Tarija

21-33S|64-42W

18:00

SLTJ 201800Z 12008KT 9999 FEW033 23/09 Q1022 A3018 HR41=

SLYA

Yacuiba

21-57S|63-39W

18:00

SLYA 201800Z 18008KT 9999 FEW023 26/14 Q1019 A3010 HR47=

SLBJ

Bermejo

22-46S|64-18W

17:00

SLBJ 201700Z 18010KT 9999 SCT070 26/16 Q1018 A3006 HR55 FU=